Time;durP1;ratioP1;P1;durP2;ratioP2;P2;SDS_P1;SDS_P2;PMS_P1;PMS_P2;Temp;Humidity;BMP_temperature;BMP_pressure;BME280_temperature;BME280_humidity;BME280_pressure;Samples;Min_cycle;Max_cycle;Signal;HPM_P1;HPM_P2
2022/03/18 00:01:21;;;;;;;17.00;7.80;;;;;;;8.33;31.34;101045.50;4363244;81;28545;-81
2022/03/18 00:07:22;;;;;;;18.20;8.73;;;;;;;7.80;32.01;101047.95;4377325;79;28563;-82
2022/03/18 00:13:24;;;;;;;15.68;7.92;;;;;;;7.54;32.36;101050.19;4372424;79;28595;-81
2022/03/18 00:19:27;;;;;;;21.37;8.73;;;;;;;7.34;32.61;101060.81;4375788;79;28477;-82
2022/03/18 00:25:29;;;;;;;19.55;7.37;;;;;;;7.21;32.68;101063.94;4377828;79;28552;-81
2022/03/18 00:31:31;;;;;;;20.25;8.25;;;;;;;7.13;32.80;101058.54;4379300;79;28462;-81
2022/03/18 00:37:32;;;;;;;19.60;9.20;;;;;;;7.16;32.95;101064.91;4352666;80;28544;-80
2022/03/18 00:43:34;;;;;;;16.12;7.90;;;;;;;6.92;33.27;101059.23;4313146;81;28525;-79
2022/03/18 00:55:56;;;;;;;17.57;8.43;;;;;;;6.72;33.71;101068.45;4332192;81;28484;-80
2022/03/18 01:01:58;;;;;;;21.55;9.15;;;;;;;6.98;33.55;101071.17;4317613;81;28490;-79
2022/03/18 01:07:59;;;;;;;21.00;8.93;;;;;;;6.55;33.93;101074.51;4336644;81;28663;-79
2022/03/18 01:14:01;;;;;;;18.82;7.53;;;;;;;6.67;33.86;101076.97;4319565;81;28521;-79
2022/03/18 01:20:03;;;;;;;19.77;8.95;;;;;;;6.50;33.91;101071.95;4346248;80;43992;-80
2022/03/18 01:26:05;;;;;;;25.92;10.68;;;;;;;6.32;34.31;101068.82;4355422;80;28499;-80
2022/03/18 01:32:07;;;;;;;18.95;8.35;;;;;;;6.41;34.19;101067.05;4330754;81;43971;-80
2022/03/18 01:38:09;;;;;;;20.32;9.03;;;;;;;6.20;34.61;101068.20;4386733;79;43948;-79
2022/03/18 01:44:12;;;;;;;16.70;7.72;;;;;;;6.06;34.85;101053.53;4383588;79;43969;-79
2022/03/18 01:50:15;;;;;;;16.67;8.23;;;;;;;5.76;35.37;101060.04;4386582;79;43952;-81
2022/03/18 01:56:17;;;;;;;18.57;7.67;;;;;;;6.00;34.84;101067.48;4390219;79;28531;-81
2022/03/18 02:02:20;;;;;;;19.02;8.75;;;;;;;5.89;35.15;101069.03;4375908;79;43969;-79
2022/03/18 02:08:21;;;;;;;19.45;8.80;;;;;;;6.23;34.60;101065.73;4368291;79;43988;-81
2022/03/18 02:14:40;;;;;;;20.55;8.93;;;;;;;6.09;35.03;101071.95;4399949;79;28489;-80
2022/03/18 02:20:41;;;;;;;19.65;8.28;;;;;;;6.09;35.19;101065.27;4388384;79;43934;-80
2022/03/18 02:26:49;;;;;;;17.37;8.80;;;;;;;5.84;35.76;101077.48;4383642;79;43961;-82
2022/03/18 02:32:51;;;;;;;19.12;8.38;;;;;;;5.95;35.69;101086.62;4370790;79;43943;-79
2022/03/18 02:38:52;;;;;;;21.50;9.60;;;;;;;5.70;36.17;101078.83;4412567;79;28549;-79
2022/03/18 02:44:54;;;;;;;17.82;8.93;;;;;;;5.66;36.38;101084.09;4425492;80;43989;-80
2022/03/18 02:50:55;;;;;;;16.05;8.28;;;;;;;5.52;36.51;101090.28;4432243;80;43957;-80
2022/03/18 02:56:56;;;;;;;17.62;8.53;;;;;;;5.59;36.41;101098.53;4426841;80;43895;-80
2022/03/18 03:02:58;;;;;;;17.37;8.28;;;;;;;5.36;37.05;101108.24;4403879;80;43974;-80
2022/03/18 03:08:59;;;;;;;19.67;8.05;;;;;;;5.03;37.51;101107.27;4387248;80;43886;-81
2022/03/18 03:15:02;;;;;;;17.73;7.65;;;;;;;5.02;37.45;101110.09;4429530;80;43941;-81
2022/03/18 03:21:03;;;;;;;17.55;8.50;;;;;;;5.20;37.13;101119.52;4418602;80;43992;-81
2022/03/18 03:27:04;;;;;;;15.78;7.05;;;;;;;4.82;37.62;101121.27;4423736;80;43908;-81
2022/03/18 03:33:06;;;;;;;19.17;9.20;;;;;;;4.61;38.12;101127.59;4424649;80;43894;-80
2022/03/18 03:39:07;;;;;;;18.35;8.35;;;;;;;4.88;37.89;101126.04;4365362;80;43998;-80
2022/03/18 03:45:10;;;;;;;16.93;7.58;;;;;;;4.93;37.92;101133.10;4435290;79;43926;-82
2022/03/18 03:51:12;;;;;;;15.55;7.15;;;;;;;5.04;37.77;101129.45;4369703;80;43981;-81
2022/03/18 03:57:13;;;;;;;19.52;8.40;;;;;;;4.97;37.96;101141.19;4385792;80;44071;-80
2022/03/18 04:03:14;;;;;;;18.35;7.72;;;;;;;4.86;38.20;101145.34;4321888;80;43919;-81
2022/03/18 04:09:16;;;;;;;18.27;7.70;;;;;;;4.74;38.69;101148.63;4371632;80;43914;-81
2022/03/18 04:15:17;;;;;;;17.85;8.35;;;;;;;4.75;38.71;101150.31;4360622;81;43973;-81
2022/03/18 04:21:18;;;;;;;15.40;8.03;;;;;;;4.46;39.34;101155.98;4397653;79;43937;-80
2022/03/18 04:27:21;;;;;;;16.37;7.90;;;;;;;4.37;39.53;101166.13;4385129;80;43996;-80
2022/03/18 04:33:22;;;;;;;16.25;7.92;;;;;;;4.50;39.55;101173.02;4380355;80;43928;-80
2022/03/18 04:39:23;;;;;;;13.32;6.70;;;;;;;4.82;39.02;101170.09;4426354;80;43936;-80
2022/03/18 04:45:25;;;;;;;14.90;7.22;;;;;;;4.51;39.36;101183.55;4400249;80;43969;-80
2022/03/18 04:51:26;;;;;;;18.77;7.92;;;;;;;4.52;39.40;101179.89;4419325;80;43971;-81
2022/03/18 04:57:28;;;;;;;17.02;7.33;;;;;;;4.54;39.54;101179.77;4432592;80;43981;-81
2022/03/18 05:03:29;;;;;;;15.38;7.45;;;;;;;4.75;39.16;101180.95;4433959;80;43925;-80
2022/03/18 05:09:31;;;;;;;17.23;8.00;;;;;;;4.82;39.16;101188.75;4417998;80;43981;-80
2022/03/18 05:15:32;;;;;;;19.15;7.85;;;;;;;4.78;39.24;101201.98;4429722;80;43958;-80
2022/03/18 05:21:33;;;;;;;20.05;9.23;;;;;;;4.93;38.98;101197.59;4413807;80;43898;-78
2022/03/18 05:27:43;;;;;;;17.70;8.43;;;;;;;4.73;39.36;101205.07;4412390;80;43909;-77
2022/03/18 05:33:44;;;;;;;20.97;9.08;;;;;;;4.88;39.03;101203.34;4416451;80;43909;-75
2022/03/18 05:39:45;;;;;;;17.32;8.25;;;;;;;4.68;39.35;101211.32;4408966;79;43937;-76
2022/03/18 05:45:47;;;;;;;19.50;8.30;;;;;;;5.21;38.73;101204.39;4390197;80;43916;-75
2022/03/18 05:51:49;;;;;;;19.00;7.65;;;;;;;5.30;38.61;101207.50;4389501;81;43921;-77
2022/03/18 05:57:53;;;;;;;18.07;8.33;;;;;;;5.25;38.71;101211.93;4400604;79;43978;-78
2022/03/18 06:03:55;;;;;;;16.73;7.42;;;;;;;4.91;38.98;101215.55;4398870;79;43980;-76
2022/03/18 06:16:17;;;;;;;15.70;7.62;;;;;;;5.93;37.86;101227.92;4297841;81;43964;-78
2022/03/18 06:22:19;;;;;;;15.20;7.65;;;;;;;5.97;37.58;101234.17;4334708;80;43932;-76
2022/03/18 06:28:20;;;;;;;16.07;7.50;;;;;;;5.66;37.87;101248.23;4330825;80;43898;-77
2022/03/18 06:34:22;;;;;;;16.40;7.17;;;;;;;5.76;37.78;101253.05;4368980;81;43921;-77
2022/03/18 06:40:23;;;;;;;21.42;7.83;;;;;;;6.38;36.65;101249.06;4370446;81;43996;-79
2022/03/18 06:46:25;;;;;;;17.90;7.87;;;;;;;6.97;36.20;101258.88;4385100;81;43926;-79
2022/03/18 06:52:27;;;;;;;15.68;7.00;;;;;;;6.97;36.02;101263.36;4387489;80;43969;-78
2022/03/18 06:58:32;;;;;;;11.80;6.30;;;;;;;6.80;35.80;101277.07;4362805;81;28557;-81
2022/03/18 07:04:39;;;;;;;12.90;6.67;;;;;;;6.11;36.53;101281.44;4378973;80;28515;-83
2022/03/18 07:10:52;;;;;;;14.60;7.28;;;;;;;6.94;35.83;101283.25;4365279;81;28525;-77
2022/03/18 07:23:19;;;;;;;13.05;6.53;;;;;;;7.03;35.79;101288.66;4369327;81;28537;-79
2022/03/18 07:29:20;;;;;;;12.23;6.37;;;;;;;7.37;35.12;101288.81;4351967;81;28528;-78
2022/03/18 07:35:22;;;;;;;17.57;7.60;;;;;;;7.75;34.54;101291.78;4368076;81;28492;-79
2022/03/18 07:41:23;;;;;;;11.75;6.35;;;;;;;7.72;34.39;101282.73;4354013;80;28536;-80
2022/03/18 07:47:25;;;;;;;15.78;7.22;;;;;;;8.03;34.24;101295.13;4426408;78;28537;-80
2022/03/18 07:53:26;;;;;;;14.23;7.47;;;;;;;8.26;33.75;101295.09;4368726;80;28540;-76
2022/03/18 07:59:27;;;;;;;19.32;8.18;;;;;;;8.50;33.60;101294.36;4357737;80;28599;-78
2022/03/18 08:05:29;;;;;;;16.95;8.90;;;;;;;8.31;33.54;101299.45;4336488;80;28467;-80
2022/03/18 08:11:31;;;;;;;16.50;9.53;;;;;;;8.00;33.99;101312.87;4352427;80;28513;-80
2022/03/18 08:17:33;;;;;;;17.85;9.73;;;;;;;8.54;33.45;101305.61;4357823;80;28523;-78
2022/03/18 08:23:35;;;;;;;15.28;7.95;;;;;;;8.68;33.24;101316.22;4360119;80;28542;-80
2022/03/18 08:29:38;;;;;;;16.23;8.13;;;;;;;8.71;33.06;101319.42;4347632;80;28614;-81
2022/03/18 08:35:41;;;;;;;15.03;7.47;;;;;;;8.63;32.99;101319.39;4349516;80;28532;-81
2022/03/18 08:41:42;;;;;;;17.02;7.50;;;;;;;9.17;32.80;101324.92;4366517;81;28583;-83
2022/03/18 08:47:44;;;;;;;17.20;8.13;;;;;;;9.18;32.27;101323.39;4358999;81;28469;-82
2022/03/18 08:53:45;;;;;;;17.85;7.97;;;;;;;9.16;32.16;101328.09;4392703;79;28537;-80
2022/03/18 08:59:47;;;;;;;12.78;6.37;;;;;;;9.47;31.83;101339.53;4392903;79;28518;-80
2022/03/18 09:05:48;;;;;;;12.70;6.60;;;;;;;9.31;32.04;101346.22;4398992;79;28511;-79
2022/03/18 09:11:50;;;;;;;12.43;6.97;;;;;;;9.32;31.78;101357.28;4399537;79;28496;-79
2022/03/18 09:17:51;;;;;;;12.75;7.37;;;;;;;9.08;32.08;101362.95;4397637;79;28544;-81
2022/03/18 09:23:53;;;;;;;13.93;6.35;;;;;;;9.22;32.23;101361.48;4388730;79;28536;-80
2022/03/18 09:29:56;;;;;;;15.23;7.42;;;;;;;9.37;32.01;101364.84;4394371;79;28497;-81
2022/03/18 09:35:57;;;;;;;16.20;7.50;;;;;;;9.44;32.13;101369.91;4402818;79;28519;-81
2022/03/18 09:42:01;;;;;;;18.00;7.37;;;;;;;9.37;32.18;101363.02;4376708;79;28468;-82
2022/03/18 09:48:15;;;;;;;11.80;6.45;;;;;;;9.45;32.12;101367.06;4381522;79;28487;-83
2022/03/18 09:54:18;;;;;;;17.60;8.28;;;;;;;9.91;31.65;101372.42;4376094;80;28490;-79
2022/03/18 10:00:19;;;;;;;13.53;7.10;;;;;;;9.96;31.49;101372.77;4380761;79;28507;-83
2022/03/18 10:06:30;;;;;;;12.47;6.45;;;;;;;10.26;31.31;101371.72;4375531;79;28549;-83
2022/03/18 10:12:45;;;;;;;17.02;8.45;;;;;;;10.18;31.36;101383.83;4363005;79;28527;-80
2022/03/18 10:18:49;;;;;;;15.83;7.33;;;;;;;10.51;30.87;101382.43;4383048;79;28520;-80
2022/03/18 10:24:50;;;;;;;16.07;8.13;;;;;;;10.82;30.66;101375.41;4375413;79;28493;-81
2022/03/18 10:30:58;;;;;;;17.32;7.75;;;;;;;10.67;30.61;101373.95;4376346;79;28473;-85
2022/03/18 10:37:09;;;;;;;14.63;8.13;;;;;;;10.46;30.40;101387.47;4377546;79;28504;-78
2022/03/18 10:43:11;;;;;;;13.22;6.83;;;;;;;10.51;30.58;101382.92;4361386;79;28505;-77
2022/03/18 10:49:12;;;;;;;12.25;6.60;;;;;;;11.01;30.19;101367.42;4366018;79;28547;-77
2022/03/18 10:55:19;;;;;;;14.80;7.17;;;;;;;11.36;30.08;101385.38;4395860;79;28563;-77
2022/03/18 11:01:25;;;;;;;14.00;6.72;;;;;;;11.41;29.05;101376.27;4366726;79;28533;-76
2022/03/18 11:07:35;;;;;;;13.43;6.62;;;;;;;11.21;29.59;101378.58;4392996;79;28475;-81
2022/03/18 11:13:53;;;;;;;13.20;7.60;;;;;;;11.80;28.98;101386.58;4373627;79;28552;-77
2022/03/18 11:19:54;;;;;;;16.10;8.38;;;;;;;11.52;29.28;101379.04;4383297;79;28566;-82
2022/03/18 11:26:01;;;;;;;16.07;8.13;;;;;;;11.76;28.89;101377.69;4361355;79;28474;-76
2022/03/18 11:32:20;;;;;;;18.07;8.73;;;;;;;12.02;28.58;101370.58;4363063;79;28533;-75
2022/03/18 11:38:25;;;;;;;15.85;7.72;;;;;;;12.06;28.41;101372.40;4382072;80;28546;-76
2022/03/18 11:44:44;;;;;;;14.83;6.95;;;;;;;11.83;28.48;101371.91;4351917;80;28536;-77
2022/03/18 11:50:45;;;;;;;14.90;7.53;;;;;;;12.35;28.14;101373.45;4463949;78;28547;-76
2022/03/18 11:56:53;;;;;;;12.40;6.97;;;;;;;12.11;27.87;101365.93;4353566;80;28559;-77
2022/03/18 12:02:55;;;;;;;14.55;7.20;;;;;;;12.46;27.85;101355.95;4382589;79;28474;-77
2022/03/18 12:08:58;;;;;;;13.53;6.72;;;;;;;12.63;27.87;101360.64;4343963;80;28481;-78
2022/03/18 12:15:09;;;;;;;14.55;7.42;;;;;;;12.42;27.82;101362.23;4348855;80;28609;-79
2022/03/18 12:21:10;;;;;;;14.68;7.42;;;;;;;12.21;27.78;101355.71;4432400;78;28592;-78
2022/03/18 12:27:12;;;;;;;14.53;7.03;;;;;;;12.51;27.53;101351.67;4360036;80;28493;-77
2022/03/18 12:33:13;;;;;;;12.40;6.22;;;;;;;12.58;27.31;101353.62;4349152;80;28553;-79
2022/03/18 12:39:14;;;;;;;15.58;6.83;;;;;;;12.93;27.10;101347.95;4346662;80;28541;-84
2022/03/18 12:45:38;;;;;;;12.03;6.58;;;;;;;13.16;26.65;101340.69;4347139;81;28512;-78
2022/03/18 12:51:51;;;;;;;15.83;7.00;;;;;;;12.88;26.54;101342.27;4335837;81;28536;-81
2022/03/18 12:57:53;;;;;;;15.30;7.17;;;;;;;13.18;26.81;101343.53;4354917;80;28430;-77
2022/03/18 13:03:55;;;;;;;13.28;6.42;;;;;;;12.94;26.32;101340.66;4366061;81;28498;-81
2022/03/18 13:09:56;;;;;;;15.68;6.78;;;;;;;13.26;26.10;101341.21;4358645;81;28634;-82
2022/03/18 13:16:02;;;;;;;12.55;6.85;;;;;;;13.24;25.99;101342.77;4343538;80;28506;-77
2022/03/18 13:22:04;;;;;;;14.53;6.37;;;;;;;13.50;25.61;101340.02;4335006;80;28535;-75
2022/03/18 13:28:08;;;;;;;11.40;6.25;;;;;;;13.30;25.68;101344.38;4342833;80;28502;-79
2022/03/18 13:34:10;;;;;;;12.13;6.05;;;;;;;13.39;25.10;101340.52;4343150;80;28500;-76
2022/03/18 13:40:15;;;;;;;11.40;5.87;;;;;;;13.56;24.57;101341.64;4352192;80;28520;-79
2022/03/18 13:46:18;;;;;;;10.43;5.90;;;;;;;13.77;24.82;101339.41;4354961;81;28461;-75
2022/03/18 13:52:35;;;;;;;12.45;5.80;;;;;;;13.47;24.77;101335.52;4350368;80;28468;-75
2022/03/18 13:58:36;;;;;;;13.60;5.78;;;;;;;13.83;23.91;101339.99;4343218;80;28529;-75
2022/03/18 14:04:43;;;;;;;11.43;4.95;;;;;;;13.95;24.25;101340.27;4344178;80;28541;-77
2022/03/18 14:10:49;;;;;;;12.20;6.00;;;;;;;13.59;23.98;101336.69;4390592;80;28457;-77
2022/03/18 14:17:16;;;;;;;10.10;5.35;;;;;;;13.90;23.62;101334.63;4346690;80;28606;-77
2022/03/18 14:23:26;;;;;;;10.48;5.00;;;;;;;13.70;23.61;101327.73;4344053;80;28474;-76
2022/03/18 14:29:35;;;;;;;8.25;5.10;;;;;;;13.50;23.37;101330.56;4361686;80;28555;-83
2022/03/18 14:35:37;;;;;;;11.03;5.47;;;;;;;13.65;23.48;101332.37;4355663;80;28520;-85
2022/03/18 14:41:39;;;;;;;11.83;4.92;;;;;;;13.69;23.19;101328.23;4332370;80;28474;-83
2022/03/18 14:47:42;;;;;;;8.80;4.95;;;;;;;13.60;22.95;101325.34;4326316;81;28469;-83
2022/03/18 14:53:43;;;;;;;11.90;5.28;;;;;;;13.90;22.89;101324.66;4331172;82;28480;-80
2022/03/18 14:59:48;;;;;;;10.93;5.42;;;;;;;13.64;22.92;101326.11;4321552;81;28515;-81
2022/03/18 15:05:49;;;;;;;9.00;5.35;;;;;;;13.67;23.03;101318.14;4321536;81;28524;-82
2022/03/18 15:11:52;;;;;;;10.03;5.33;;;;;;;13.98;23.21;101316.91;4345193;82;28498;-81
2022/03/18 15:17:53;;;;;;;12.73;5.10;;;;;;;13.69;23.29;101311.16;4332221;82;28567;-81
2022/03/18 15:23:55;;;;;;;12.68;5.40;;;;;;;13.53;23.07;101313.95;4341795;82;28506;-75
2022/03/18 15:29:56;;;;;;;10.45;5.17;;;;;;;13.51;22.83;101314.67;4323675;81;28484;-76
2022/03/18 15:35:58;;;;;;;9.03;5.33;;;;;;;13.48;23.08;101315.57;4332182;82;28482;-75
2022/03/18 15:42:02;;;;;;;10.82;6.20;;;;;;;13.59;23.23;101316.92;4340872;81;28505;-80
2022/03/18 15:48:03;;;;;;;9.35;5.45;;;;;;;13.39;23.03;101316.20;4392841;80;28520;-81
2022/03/18 15:54:05;;;;;;;11.55;5.53;;;;;;;13.45;23.33;101317.31;4401455;79;28537;-82
2022/03/18 16:00:08;;;;;;;10.03;5.58;;;;;;;13.10;23.56;101323.39;4412422;79;28570;-80
2022/03/18 16:06:11;;;;;;;11.38;5.40;;;;;;;13.31;23.31;101326.62;4410952;80;28535;-78
2022/03/18 16:12:15;;;;;;;12.78;6.08;;;;;;;12.72;23.47;101334.40;4435027;80;28500;-80
2022/03/18 16:18:18;;;;;;;10.18;5.30;;;;;;;12.83;23.43;101333.38;4426037;80;28445;-79
2022/03/18 16:24:20;;;;;;;10.70;6.15;;;;;;;13.23;23.27;101332.15;4416045;80;28598;-80
2022/03/18 16:30:24;;;;;;;10.58;5.42;;;;;;;12.95;23.76;101343.19;4415885;80;28464;-79
2022/03/18 16:36:35;;;;;;;10.35;5.80;;;;;;;12.36;24.63;101352.20;4436077;78;28537;-80
2022/03/18 16:42:40;;;;;;;12.98;6.47;;;;;;;12.45;24.80;101354.28;4387208;80;28504;-81
2022/03/18 16:55:02;;;;;;;12.75;6.95;;;;;;;12.50;25.24;101369.41;4406967;79;28501;-76
2022/03/18 17:01:13;;;;;;;14.23;6.40;;;;;;;12.36;25.51;101374.60;4413379;79;28510;-78
2022/03/18 17:07:15;;;;;;;13.95;7.05;;;;;;;12.07;25.97;101388.91;4418278;79;28478;-80
2022/03/18 17:13:16;;;;;;;14.95;6.65;;;;;;;11.98;26.21;101401.59;4414463;79;28525;-82
2022/03/18 17:19:18;;;;;;;13.48;6.97;;;;;;;11.57;26.73;101408.14;4398714;79;28496;-79
2022/03/18 17:25:20;;;;;;;12.28;6.92;;;;;;;11.56;26.86;101415.40;4396930;79;28551;-83
2022/03/18 17:31:23;;;;;;;17.48;7.03;;;;;;;11.47;26.96;101422.35;4365058;81;28436;-79
2022/03/18 17:37:24;;;;;;;15.15;6.75;;;;;;;11.40;27.01;101428.96;4394995;79;28521;-80
2022/03/18 17:43:26;;;;;;;16.23;8.13;;;;;;;11.61;26.80;101432.38;4385933;79;28550;-77
2022/03/18 17:49:30;;;;;;;18.55;8.73;;;;;;;11.27;27.15;101442.50;4385257;79;28513;-80
2022/03/18 17:55:31;;;;;;;16.82;8.50;;;;;;;11.06;27.17;101449.83;4379185;79;28473;-77
2022/03/18 18:01:34;;;;;;;17.17;8.90;;;;;;;11.15;27.13;101459.55;4386840;79;28510;-78
2022/03/18 18:07:36;;;;;;;16.32;8.28;;;;;;;10.80;27.33;101453.64;4398020;79;28484;-83
2022/03/18 18:13:38;;;;;;;20.88;8.73;;;;;;;10.56;27.54;101465.30;4394962;79;28485;-78
2022/03/18 18:26:00;;;;;;;18.35;9.03;;;;;;;10.38;27.66;101468.98;4377323;79;28511;-80
2022/03/18 18:32:04;;;;;;;19.35;9.03;;;;;;;10.12;27.68;101476.75;4388814;79;28553;-80
2022/03/18 18:38:06;;;;;;;21.80;9.48;;;;;;;10.26;27.52;101470.34;4376947;79;28541;-81
2022/03/18 18:44:11;;;;;;;21.73;9.40;;;;;;;9.99;27.81;101473.20;4424818;80;28523;-76
2022/03/18 18:50:13;;;;;;;20.15;8.78;;;;;;;10.04;27.62;101480.77;4388565;80;28557;-82
2022/03/18 18:56:17;;;;;;;20.57;9.40;;;;;;;9.88;27.76;101488.31;4419645;80;28540;-86
2022/03/18 19:02:18;;;;;;;21.75;9.80;;;;;;;9.83;27.70;101478.06;4391994;80;28499;-83
2022/03/18 19:08:21;;;;;;;23.00;10.23;;;;;;;9.66;27.92;101482.58;4412257;80;28477;-84
2022/03/18 19:14:23;;;;;;;21.30;9.73;;;;;;;9.52;28.12;101483.20;4433477;79;28498;-79
2022/03/18 19:20:25;;;;;;;24.02;9.60;;;;;;;9.33;28.46;101487.86;4425673;80;28553;-82
2022/03/18 19:26:27;;;;;;;24.43;10.82;;;;;;;9.34;28.50;101497.59;4404978;80;28563;-82
2022/03/18 19:32:32;;;;;;;26.30;11.55;;;;;;;9.01;28.69;101505.51;4419703;80;28520;-82
2022/03/18 19:38:33;;;;;;;29.32;12.35;;;;;;;9.10;28.58;101499.16;4410609;80;28547;-78
2022/03/18 19:44:36;;;;;;;25.85;10.93;;;;;;;9.06;28.46;101503.17;4454674;78;28513;-83
2022/03/18 19:50:38;;;;;;;22.98;10.53;;;;;;;8.85;28.72;101503.06;4409761;79;28469;-81
2022/03/18 20:03:03;;;;;;;26.48;11.08;;;;;;;8.73;29.16;101501.66;4380534;79;28453;-86
2022/03/18 20:09:04;;;;;;;28.95;11.20;;;;;;;8.77;29.31;101507.03;4393466;80;28471;-83
2022/03/18 20:15:17;;;;;;;24.70;10.68;;;;;;;8.65;29.49;101507.81;4405022;79;28489;-87
2022/03/18 20:21:19;;;;;;;26.82;11.75;;;;;;;8.61;29.91;101501.92;4383757;80;28527;-85
2022/03/18 20:27:22;;;;;;;29.87;12.25;;;;;;;8.35;29.86;101496.51;4378226;79;28550;-85
2022/03/18 20:33:23;;;;;;;26.77;11.78;;;;;;;8.25;29.98;101495.76;4400701;80;28515;-79
2022/03/18 20:39:24;;;;;;;29.35;12.80;;;;;;;8.00;30.47;101499.55;4386137;79;28623;-82
2022/03/18 20:45:27;;;;;;;29.90;12.47;;;;;;;8.03;30.32;101504.10;4373666;79;28522;-83
2022/03/18 20:51:30;;;;;;;29.72;12.95;;;;;;;8.02;30.26;101497.06;4400554;79;28491;-82
2022/03/18 20:57:31;;;;;;;27.15;11.20;;;;;;;7.99;30.06;101505.42;4388046;79;28524;-87
2022/03/18 21:03:36;;;;;;;27.70;11.78;;;;;;;7.86;30.15;101501.77;4388097;79;28551;-86
2022/03/18 21:09:37;;;;;;;32.13;13.55;;;;;;;7.74;30.29;101505.16;4458160;78;28521;-86
2022/03/18 21:15:39;;;;;;;32.03;12.65;;;;;;;7.60;30.32;101514.58;4440531;78;28482;-82
2022/03/18 21:21:40;;;;;;;27.35;12.40;;;;;;;7.77;30.23;101513.39;4424340;78;28517;-90
2022/03/18 21:34:04;;;;;;;30.23;11.97;;;;;;;7.62;30.26;101509.91;4355270;80;28550;-88
2022/03/18 21:40:08;;;;;;;26.33;12.30;;;;;;;7.54;30.47;101507.13;4429919;78;28506;-87
2022/03/18 21:46:10;;;;;;;32.23;12.58;;;;;;;7.35;31.24;101515.61;4394428;79;28526;-85
2022/03/18 21:52:12;;;;;;;28.40;13.08;;;;;;;7.10;31.90;101511.78;4432424;79;28532;-85
2022/03/18 21:58:14;;;;;;;27.60;12.60;;;;;;;6.73;32.56;101521.98;4398388;79;28475;-86
2022/03/18 22:04:15;;;;;;;32.85;13.00;;;;;;;6.89;31.67;101526.72;4389058;79;28506;-85
2022/03/18 22:10:21;;;;;;;28.73;12.10;;;;;;;6.81;31.49;101522.94;4392241;80;28572;-86
2022/03/18 22:16:20;;;;;;;30.52;13.03;;;;;;;6.81;32.20;101505.55;4378919;79;43410;-87
2022/03/18 22:22:21;;;;;;;41.18;14.70;;;;;;;6.82;32.40;101519.75;4396831;79;44411;-85
2022/03/18 22:28:23;;;;;;;36.17;15.18;;;;;;;6.76;32.16;101521.17;4389225;79;28499;-85
2022/03/18 22:34:24;;;;;;;32.25;13.38;;;;;;;6.82;32.16;101519.75;4396724;79;28529;-87
2022/03/18 22:40:26;;;;;;;36.30;13.18;;;;;;;6.61;32.82;101519.95;4393826;79;44470;-87
2022/03/18 22:46:27;;;;;;;35.38;14.20;;;;;;;6.58;32.96;101521.08;4367522;79;44438;-87
2022/03/18 22:52:28;;;;;;;33.30;13.90;;;;;;;6.38;33.26;101526.95;4384489;79;28515;-87
2022/03/18 22:58:30;;;;;;;35.68;15.53;;;;;;;6.12;33.28;101530.19;4402862;79;44249;-88
2022/03/18 23:04:31;;;;;;;36.48;15.93;;;;;;;5.93;33.81;101529.66;4387067;79;44442;-87
2022/03/18 23:16:54;;;;;;;38.65;16.27;;;;;;;5.71;33.78;101526.26;4405706;79;44468;-85
2022/03/18 23:22:57;;;;;;;30.10;15.53;;;;;;;5.84;33.97;101531.34;4366809;80;44068;-85
2022/03/18 23:28:59;;;;;;;38.95;15.95;;;;;;;5.87;33.94;101535.06;4398658;79;44505;-84
2022/03/18 23:35:01;;;;;;;38.80;15.80;;;;;;;5.69;34.35;101532.23;4362641;80;44467;-85
2022/03/18 23:41:02;;;;;;;38.08;15.35;;;;;;;5.42;34.94;101525.69;4362229;80;44530;-85
2022/03/18 23:47:04;;;;;;;34.88;14.90;;;;;;;5.33;35.15;101527.36;4388648;80;44139;-84
2022/03/18 23:53:05;;;;;;;41.20;15.38;;;;;;;5.03;35.76;101534.39;4406449;80;44450;-86
2022/03/18 23:59:07;;;;;;;41.33;17.45;;;;;;;4.68;37.85;101547.57;4398942;80;44418;-86
